Accueil
METAR-TAF:

METAR-TAF

Aéroports :

Chiredzi, Zimbabwe

latitude: 21-01S, longitude: 031-35E, altitude: 429 m

Observation

Le bulletin a été fait il y a 1 heure et 35 minutes, à 12:00 UTC
Vent 10 kt de sud/sud-est
Température 25°C
Humidité 44%
Pression 1027 hPa
Visibilité 10 km ou plus
pas de nuages en-dessous de 1500 mètres et pas de cumulonimbus.

METAR: FVCZ 231200Z 15010KT CAVOK 25/12 Q1027

Heure: 15:35 (13:35 UTC)


TAF: absent

Observations et prévisions météorologiques de plus de 4000 aéroports (messages METAR et TAF).

Les stations disponibles sont représentées par des disques jaunes et rouges sur la carte.

Passer la souris dessus pour voir le nom de la station.

Cliquer dessus pour voir les observations et prévisions météorologiques.

Pour changer de carte: cliquez sur les boutons verts avec une croix noire pour zoomer, sur le bouton vert avec un tiret pour effectuer un zoom arrière, ou sur les flèches vertes pour les cartes adjacentes.


METAR-TAF: